sensor_id;sensor_type;location;lat;lon;timestamp;P1;durP1;ratioP1;P2;durP2;ratioP2
15812;SDS011;8007;51.404;6.304;2022-12-18T00:00:53;39.67;;;19.90;;
15812;SDS011;8007;51.404;6.304;2022-12-18T00:02:55;36.20;;;16.73;;
15812;SDS011;8007;51.404;6.304;2022-12-18T00:04:57;53.60;;;25.70;;
15812;SDS011;8007;51.404;6.304;2022-12-18T00:07:02;42.27;;;18.90;;
15812;SDS011;8007;51.404;6.304;2022-12-18T00:09:05;40.73;;;18.97;;
15812;SDS011;8007;51.404;6.304;2022-12-18T00:11:08;45.87;;;21.70;;
15812;SDS011;8007;51.404;6.304;2022-12-18T00:13:11;49.63;;;24.40;;
15812;SDS011;8007;51.404;6.304;2022-12-18T00:15:13;46.07;;;20.23;;
15812;SDS011;8007;51.404;6.304;2022-12-18T00:17:15;81.70;;;36.13;;
15812;SDS011;8007;51.404;6.304;2022-12-18T00:19:18;39.80;;;20.10;;
15812;SDS011;8007;51.404;6.304;2022-12-18T00:21:20;52.67;;;26.23;;
15812;SDS011;8007;51.404;6.304;2022-12-18T00:23:22;44.53;;;19.47;;
15812;SDS011;8007;51.404;6.304;2022-12-18T00:25:26;49.63;;;22.60;;
15812;SDS011;8007;51.404;6.304;2022-12-18T00:27:29;41.40;;;18.43;;
15812;SDS011;8007;51.404;6.304;2022-12-18T00:29:31;58.03;;;23.60;;
15812;SDS011;8007;51.404;6.304;2022-12-18T00:31:34;46.07;;;20.70;;
15812;SDS011;8007;51.404;6.304;2022-12-18T00:33:36;33.80;;;15.70;;
15812;SDS011;8007;51.404;6.304;2022-12-18T00:35:38;33.73;;;16.10;;
15812;SDS011;8007;51.404;6.304;2022-12-18T00:37:41;34.57;;;15.77;;
15812;SDS011;8007;51.404;6.304;2022-12-18T00:39:43;31.27;;;15.70;;
15812;SDS011;8007;51.404;6.304;2022-12-18T00:41:47;34.20;;;16.23;;
15812;SDS011;8007;51.404;6.304;2022-12-18T00:44:08;34.70;;;15.00;;
15812;SDS011;8007;51.404;6.304;2022-12-18T00:46:11;28.53;;;14.43;;
15812;SDS011;8007;51.404;6.304;2022-12-18T00:48:13;29.93;;;14.83;;
15812;SDS011;8007;51.404;6.304;2022-12-18T00:50:16;31.80;;;16.30;;
15812;SDS011;8007;51.404;6.304;2022-12-18T00:52:18;33.63;;;14.83;;
15812;SDS011;8007;51.404;6.304;2022-12-18T00:54:21;31.90;;;15.60;;
15812;SDS011;8007;51.404;6.304;2022-12-18T00:56:23;29.33;;;15.77;;
15812;SDS011;8007;51.404;6.304;2022-12-18T00:58:27;35.17;;;15.30;;
15812;SDS011;8007;51.404;6.304;2022-12-18T01:00:29;31.50;;;14.90;;
15812;SDS011;8007;51.404;6.304;2022-12-18T01:02:31;29.13;;;14.30;;
15812;SDS011;8007;51.404;6.304;2022-12-18T01:04:34;31.87;;;13.87;;
15812;SDS011;8007;51.404;6.304;2022-12-18T01:06:36;29.63;;;14.03;;
15812;SDS011;8007;51.404;6.304;2022-12-18T01:08:38;27.70;;;13.53;;
15812;SDS011;8007;51.404;6.304;2022-12-18T01:10:40;31.33;;;13.70;;
15812;SDS011;8007;51.404;6.304;2022-12-18T01:12:43;29.00;;;13.63;;
15812;SDS011;8007;51.404;6.304;2022-12-18T01:14:47;26.90;;;12.57;;
15812;SDS011;8007;51.404;6.304;2022-12-18T01:16:49;27.77;;;13.73;;
15812;SDS011;8007;51.404;6.304;2022-12-18T01:18:52;31.43;;;13.20;;
15812;SDS011;8007;51.404;6.304;2022-12-18T01:20:54;26.70;;;12.77;;
15812;SDS011;8007;51.404;6.304;2022-12-18T01:22:56;25.07;;;12.40;;
15812;SDS011;8007;51.404;6.304;2022-12-18T01:24:59;24.27;;;11.93;;
15812;SDS011;8007;51.404;6.304;2022-12-18T01:27:01;27.50;;;12.03;;
15812;SDS011;8007;51.404;6.304;2022-12-18T01:29:03;27.77;;;12.57;;
15812;SDS011;8007;51.404;6.304;2022-12-18T01:31:14;27.13;;;12.93;;
15812;SDS011;8007;51.404;6.304;2022-12-18T01:33:16;25.60;;;12.73;;
15812;SDS011;8007;51.404;6.304;2022-12-18T01:35:19;23.73;;;11.97;;
15812;SDS011;8007;51.404;6.304;2022-12-18T01:37:21;28.53;;;12.37;;
15812;SDS011;8007;51.404;6.304;2022-12-18T01:39:23;26.60;;;13.10;;
15812;SDS011;8007;51.404;6.304;2022-12-18T01:41:26;25.63;;;12.23;;
15812;SDS011;8007;51.404;6.304;2022-12-18T01:43:51;29.23;;;14.20;;
15812;SDS011;8007;51.404;6.304;2022-12-18T01:45:53;26.37;;;13.10;;
15812;SDS011;8007;51.404;6.304;2022-12-18T01:47:57;25.00;;;11.50;;
15812;SDS011;8007;51.404;6.304;2022-12-18T01:50:03;23.50;;;12.10;;
15812;SDS011;8007;51.404;6.304;2022-12-18T01:52:06;29.77;;;12.97;;
15812;SDS011;8007;51.404;6.304;2022-12-18T01:54:08;25.13;;;12.33;;
15812;SDS011;8007;51.404;6.304;2022-12-18T01:56:12;24.43;;;12.37;;
15812;SDS011;8007;51.404;6.304;2022-12-18T01:58:15;25.13;;;12.70;;
15812;SDS011;8007;51.404;6.304;2022-12-18T02:00:18;27.33;;;12.83;;
15812;SDS011;8007;51.404;6.304;2022-12-18T02:02:21;24.60;;;12.53;;
15812;SDS011;8007;51.404;6.304;2022-12-18T02:04:26;26.93;;;12.03;;
15812;SDS011;8007;51.404;6.304;2022-12-18T02:06:29;24.63;;;11.37;;
15812;SDS011;8007;51.404;6.304;2022-12-18T02:08:37;21.60;;;11.57;;
15812;SDS011;8007;51.404;6.304;2022-12-18T02:10:45;24.17;;;12.93;;
15812;SDS011;8007;51.404;6.304;2022-12-18T02:12:51;26.10;;;12.13;;
15812;SDS011;8007;51.404;6.304;2022-12-18T02:14:55;23.30;;;12.00;;
15812;SDS011;8007;51.404;6.304;2022-12-18T02:17:01;24.50;;;12.90;;
15812;SDS011;8007;51.404;6.304;2022-12-18T02:19:06;27.30;;;12.20;;
15812;SDS011;8007;51.404;6.304;2022-12-18T02:21:12;24.50;;;12.17;;
15812;SDS011;8007;51.404;6.304;2022-12-18T02:23:24;26.20;;;12.57;;
15812;SDS011;8007;51.404;6.304;2022-12-18T02:25:37;24.93;;;11.17;;
15812;SDS011;8007;51.404;6.304;2022-12-18T02:27:43;26.07;;;12.07;;
15812;SDS011;8007;51.404;6.304;2022-12-18T02:29:48;24.37;;;12.03;;
15812;SDS011;8007;51.404;6.304;2022-12-18T02:31:52;24.80;;;12.03;;
15812;SDS011;8007;51.404;6.304;2022-12-18T02:33:56;25.67;;;11.37;;
15812;SDS011;8007;51.404;6.304;2022-12-18T02:36:00;23.87;;;12.57;;
15812;SDS011;8007;51.404;6.304;2022-12-18T02:38:03;25.13;;;11.10;;
15812;SDS011;8007;51.404;6.304;2022-12-18T02:40:06;23.23;;;11.40;;
15812;SDS011;8007;51.404;6.304;2022-12-18T02:42:10;24.87;;;12.20;;
15812;SDS011;8007;51.404;6.304;2022-12-18T02:44:15;29.13;;;13.07;;
15812;SDS011;8007;51.404;6.304;2022-12-18T02:46:23;24.57;;;11.37;;
15812;SDS011;8007;51.404;6.304;2022-12-18T02:48:27;24.13;;;11.90;;
15812;SDS011;8007;51.404;6.304;2022-12-18T02:50:32;24.67;;;11.63;;
15812;SDS011;8007;51.404;6.304;2022-12-18T02:52:39;24.67;;;11.97;;
15812;SDS011;8007;51.404;6.304;2022-12-18T02:54:48;25.23;;;11.50;;
15812;SDS011;8007;51.404;6.304;2022-12-18T02:56:51;26.80;;;12.67;;
15812;SDS011;8007;51.404;6.304;2022-12-18T02:58:57;23.77;;;12.87;;
15812;SDS011;8007;51.404;6.304;2022-12-18T03:01:02;22.73;;;12.17;;
15812;SDS011;8007;51.404;6.304;2022-12-18T03:03:07;23.30;;;11.60;;
15812;SDS011;8007;51.404;6.304;2022-12-18T03:05:13;28.00;;;12.93;;
15812;SDS011;8007;51.404;6.304;2022-12-18T03:07:17;28.47;;;12.93;;
15812;SDS011;8007;51.404;6.304;2022-12-18T03:09:21;23.30;;;11.27;;
15812;SDS011;8007;51.404;6.304;2022-12-18T03:11:23;23.57;;;12.00;;
15812;SDS011;8007;51.404;6.304;2022-12-18T03:13:41;26.43;;;12.83;;
15812;SDS011;8007;51.404;6.304;2022-12-18T03:15:45;25.23;;;12.20;;
15812;SDS011;8007;51.404;6.304;2022-12-18T03:17:51;26.07;;;12.47;;
15812;SDS011;8007;51.404;6.304;2022-12-18T03:19:54;25.30;;;13.57;;
15812;SDS011;8007;51.404;6.304;2022-12-18T03:21:58;26.23;;;13.17;;
15812;SDS011;8007;51.404;6.304;2022-12-18T03:24:02;28.90;;;12.53;;
15812;SDS011;8007;51.404;6.304;2022-12-18T03:26:10;25.30;;;11.37;;
15812;SDS011;8007;51.404;6.304;2022-12-18T03:28:13;25.47;;;13.23;;
15812;SDS011;8007;51.404;6.304;2022-12-18T03:30:17;25.70;;;13.03;;
15812;SDS011;8007;51.404;6.304;2022-12-18T03:32:20;24.87;;;12.47;;
15812;SDS011;8007;51.404;6.304;2022-12-18T03:34:29;26.17;;;12.37;;
15812;SDS011;8007;51.404;6.304;2022-12-18T03:36:32;25.23;;;13.23;;
15812;SDS011;8007;51.404;6.304;2022-12-18T03:38:34;25.13;;;12.57;;
15812;SDS011;8007;51.404;6.304;2022-12-18T03:40:40;25.40;;;12.30;;
15812;SDS011;8007;51.404;6.304;2022-12-18T03:42:46;27.87;;;13.43;;
15812;SDS011;8007;51.404;6.304;2022-12-18T03:44:52;30.20;;;12.97;;
15812;SDS011;8007;51.404;6.304;2022-12-18T03:46:58;23.57;;;12.67;;
15812;SDS011;8007;51.404;6.304;2022-12-18T03:49:05;25.17;;;12.63;;
15812;SDS011;8007;51.404;6.304;2022-12-18T03:51:11;24.43;;;12.30;;
15812;SDS011;8007;51.404;6.304;2022-12-18T03:53:18;24.83;;;12.37;;
15812;SDS011;8007;51.404;6.304;2022-12-18T03:55:23;23.87;;;12.03;;
15812;SDS011;8007;51.404;6.304;2022-12-18T03:57:27;23.40;;;12.60;;
15812;SDS011;8007;51.404;6.304;2022-12-18T03:59:30;23.10;;;11.40;;
15812;SDS011;8007;51.404;6.304;2022-12-18T04:01:33;23.83;;;11.73;;
15812;SDS011;8007;51.404;6.304;2022-12-18T04:03:37;25.57;;;12.87;;
15812;SDS011;8007;51.404;6.304;2022-12-18T04:05:40;28.60;;;12.53;;
15812;SDS011;8007;51.404;6.304;2022-12-18T04:07:44;26.57;;;12.57;;
15812;SDS011;8007;51.404;6.304;2022-12-18T04:09:47;25.27;;;12.17;;
15812;SDS011;8007;51.404;6.304;2022-12-18T04:11:50;27.00;;;12.97;;
15812;SDS011;8007;51.404;6.304;2022-12-18T04:13:55;22.70;;;12.40;;
15812;SDS011;8007;51.404;6.304;2022-12-18T04:15:57;26.17;;;12.40;;
15812;SDS011;8007;51.404;6.304;2022-12-18T04:17:59;26.30;;;12.13;;
15812;SDS011;8007;51.404;6.304;2022-12-18T04:20:02;27.33;;;12.50;;
15812;SDS011;8007;51.404;6.304;2022-12-18T04:22:04;24.20;;;12.07;;
15812;SDS011;8007;51.404;6.304;2022-12-18T04:24:07;27.93;;;12.47;;
15812;SDS011;8007;51.404;6.304;2022-12-18T04:26:09;24.33;;;12.50;;
15812;SDS011;8007;51.404;6.304;2022-12-18T04:28:12;29.30;;;12.50;;
15812;SDS011;8007;51.404;6.304;2022-12-18T04:30:14;20.33;;;11.50;;
15812;SDS011;8007;51.404;6.304;2022-12-18T04:32:16;29.60;;;12.60;;
15812;SDS011;8007;51.404;6.304;2022-12-18T04:34:18;23.77;;;12.87;;
15812;SDS011;8007;51.404;6.304;2022-12-18T04:36:20;21.43;;;12.27;;
15812;SDS011;8007;51.404;6.304;2022-12-18T04:38:22;23.47;;;11.73;;
15812;SDS011;8007;51.404;6.304;2022-12-18T04:40:26;26.33;;;11.67;;
15812;SDS011;8007;51.404;6.304;2022-12-18T04:42:28;25.00;;;12.57;;
15812;SDS011;8007;51.404;6.304;2022-12-18T04:44:30;27.30;;;13.23;;
15812;SDS011;8007;51.404;6.304;2022-12-18T04:46:32;25.70;;;12.57;;
15812;SDS011;8007;51.404;6.304;2022-12-18T04:48:35;23.63;;;12.60;;
15812;SDS011;8007;51.404;6.304;2022-12-18T04:50:37;26.27;;;12.30;;
15812;SDS011;8007;51.404;6.304;2022-12-18T04:52:39;25.30;;;11.17;;
15812;SDS011;8007;51.404;6.304;2022-12-18T04:54:42;21.20;;;12.47;;
15812;SDS011;8007;51.404;6.304;2022-12-18T04:56:45;22.57;;;10.77;;
15812;SDS011;8007;51.404;6.304;2022-12-18T04:58:47;23.80;;;11.63;;
15812;SDS011;8007;51.404;6.304;2022-12-18T05:00:49;21.13;;;11.73;;
15812;SDS011;8007;51.404;6.304;2022-12-18T05:02:52;25.40;;;11.47;;
15812;SDS011;8007;51.404;6.304;2022-12-18T05:04:54;22.37;;;10.93;;
15812;SDS011;8007;51.404;6.304;2022-12-18T05:06:56;22.70;;;11.67;;
15812;SDS011;8007;51.404;6.304;2022-12-18T05:08:58;18.73;;;9.63;;
15812;SDS011;8007;51.404;6.304;2022-12-18T05:11:02;23.60;;;11.90;;
15812;SDS011;8007;51.404;6.304;2022-12-18T05:13:05;19.37;;;10.90;;
15812;SDS011;8007;51.404;6.304;2022-12-18T05:15:08;16.23;;;10.33;;
15812;SDS011;8007;51.404;6.304;2022-12-18T05:17:10;20.63;;;10.10;;
15812;SDS011;8007;51.404;6.304;2022-12-18T05:19:12;24.60;;;10.87;;
15812;SDS011;8007;51.404;6.304;2022-12-18T05:21:14;23.37;;;10.93;;
15812;SDS011;8007;51.404;6.304;2022-12-18T05:23:17;23.20;;;11.10;;
15812;SDS011;8007;51.404;6.304;2022-12-18T05:25:19;23.13;;;11.80;;
15812;SDS011;8007;51.404;6.304;2022-12-18T05:27:22;22.60;;;11.37;;
15812;SDS011;8007;51.404;6.304;2022-12-18T05:29:26;23.30;;;11.83;;
15812;SDS011;8007;51.404;6.304;2022-12-18T05:31:28;23.07;;;11.00;;
15812;SDS011;8007;51.404;6.304;2022-12-18T05:33:31;22.00;;;10.77;;
15812;SDS011;8007;51.404;6.304;2022-12-18T05:35:34;24.10;;;11.43;;
15812;SDS011;8007;51.404;6.304;2022-12-18T05:37:36;22.43;;;12.07;;
15812;SDS011;8007;51.404;6.304;2022-12-18T05:39:38;24.93;;;11.87;;
15812;SDS011;8007;51.404;6.304;2022-12-18T05:41:41;24.30;;;11.13;;
15812;SDS011;8007;51.404;6.304;2022-12-18T05:43:43;24.97;;;10.63;;
15812;SDS011;8007;51.404;6.304;2022-12-18T05:45:47;22.40;;;10.97;;
15812;SDS011;8007;51.404;6.304;2022-12-18T05:47:49;22.60;;;12.30;;
15812;SDS011;8007;51.404;6.304;2022-12-18T05:49:51;23.07;;;12.23;;
15812;SDS011;8007;51.404;6.304;2022-12-18T05:51:53;21.77;;;11.20;;
15812;SDS011;8007;51.404;6.304;2022-12-18T05:53:55;20.03;;;11.03;;
15812;SDS011;8007;51.404;6.304;2022-12-18T05:55:59;20.67;;;11.30;;
15812;SDS011;8007;51.404;6.304;2022-12-18T05:58:01;21.37;;;11.43;;
15812;SDS011;8007;51.404;6.304;2022-12-18T06:00:04;21.07;;;11.33;;
15812;SDS011;8007;51.404;6.304;2022-12-18T06:02:08;23.00;;;11.17;;
15812;SDS011;8007;51.404;6.304;2022-12-18T06:04:10;24.90;;;12.40;;
15812;SDS011;8007;51.404;6.304;2022-12-18T06:06:13;20.73;;;11.87;;
15812;SDS011;8007;51.404;6.304;2022-12-18T06:08:15;26.20;;;12.70;;
15812;SDS011;8007;51.404;6.304;2022-12-18T06:10:18;23.13;;;12.10;;
15812;SDS011;8007;51.404;6.304;2022-12-18T06:12:20;25.37;;;12.73;;
15812;SDS011;8007;51.404;6.304;2022-12-18T06:14:22;24.53;;;11.97;;
15812;SDS011;8007;51.404;6.304;2022-12-18T06:16:24;26.77;;;13.70;;
15812;SDS011;8007;51.404;6.304;2022-12-18T06:18:28;21.03;;;12.07;;
15812;SDS011;8007;51.404;6.304;2022-12-18T06:20:30;21.23;;;11.57;;
15812;SDS011;8007;51.404;6.304;2022-12-18T06:22:34;19.47;;;12.27;;
15812;SDS011;8007;51.404;6.304;2022-12-18T06:24:36;25.90;;;12.70;;
15812;SDS011;8007;51.404;6.304;2022-12-18T06:26:39;24.33;;;12.00;;
15812;SDS011;8007;51.404;6.304;2022-12-18T06:28:41;23.70;;;11.90;;
15812;SDS011;8007;51.404;6.304;2022-12-18T06:30:44;23.27;;;12.47;;
15812;SDS011;8007;51.404;6.304;2022-12-18T06:32:47;25.20;;;11.77;;
15812;SDS011;8007;51.404;6.304;2022-12-18T06:34:51;25.30;;;12.43;;
15812;SDS011;8007;51.404;6.304;2022-12-18T06:36:53;24.70;;;12.30;;
15812;SDS011;8007;51.404;6.304;2022-12-18T06:38:55;28.47;;;11.60;;
15812;SDS011;8007;51.404;6.304;2022-12-18T06:40:58;23.57;;;13.03;;
15812;SDS011;8007;51.404;6.304;2022-12-18T06:43:00;22.63;;;12.70;;
15812;SDS011;8007;51.404;6.304;2022-12-18T06:45:02;24.87;;;12.97;;
15812;SDS011;8007;51.404;6.304;2022-12-18T06:47:04;24.50;;;12.27;;
15812;SDS011;8007;51.404;6.304;2022-12-18T06:49:07;27.40;;;11.67;;
15812;SDS011;8007;51.404;6.304;2022-12-18T06:51:11;29.53;;;13.93;;
15812;SDS011;8007;51.404;6.304;2022-12-18T06:53:13;22.30;;;12.30;;
15812;SDS011;8007;51.404;6.304;2022-12-18T06:55:15;31.13;;;14.13;;
15812;SDS011;8007;51.404;6.304;2022-12-18T06:57:18;28.37;;;13.23;;
15812;SDS011;8007;51.404;6.304;2022-12-18T06:59:21;30.43;;;13.93;;
15812;SDS011;8007;51.404;6.304;2022-12-18T07:01:23;23.50;;;12.27;;
15812;SDS011;8007;51.404;6.304;2022-12-18T07:03:25;26.73;;;12.17;;
15812;SDS011;8007;51.404;6.304;2022-12-18T07:05:27;28.73;;;12.47;;
15812;SDS011;8007;51.404;6.304;2022-12-18T07:07:31;27.20;;;14.03;;
15812;SDS011;8007;51.404;6.304;2022-12-18T07:09:35;29.67;;;14.10;;
15812;SDS011;8007;51.404;6.304;2022-12-18T07:11:37;29.57;;;13.83;;
15812;SDS011;8007;51.404;6.304;2022-12-18T07:13:39;22.57;;;11.80;;
15812;SDS011;8007;51.404;6.304;2022-12-18T07:15:41;29.60;;;14.03;;
15812;SDS011;8007;51.404;6.304;2022-12-18T07:17:43;27.20;;;14.27;;
15812;SDS011;8007;51.404;6.304;2022-12-18T07:19:45;24.60;;;12.57;;
15812;SDS011;8007;51.404;6.304;2022-12-18T07:21:47;24.70;;;12.97;;
15812;SDS011;8007;51.404;6.304;2022-12-18T07:23:53;26.00;;;11.90;;
15812;SDS011;8007;51.404;6.304;2022-12-18T07:25:55;20.37;;;11.37;;
15812;SDS011;8007;51.404;6.304;2022-12-18T07:28:01;25.07;;;12.17;;
15812;SDS011;8007;51.404;6.304;2022-12-18T07:30:03;24.17;;;12.13;;
15812;SDS011;8007;51.404;6.304;2022-12-18T07:32:06;21.70;;;12.10;;
15812;SDS011;8007;51.404;6.304;2022-12-18T07:34:09;21.87;;;11.80;;
15812;SDS011;8007;51.404;6.304;2022-12-18T07:36:12;23.67;;;12.10;;
15812;SDS011;8007;51.404;6.304;2022-12-18T07:38:15;22.90;;;12.00;;
15812;SDS011;8007;51.404;6.304;2022-12-18T07:40:19;20.63;;;11.57;;
15812;SDS011;8007;51.404;6.304;2022-12-18T07:42:21;24.63;;;12.83;;
15812;SDS011;8007;51.404;6.304;2022-12-18T07:44:32;21.60;;;12.37;;
15812;SDS011;8007;51.404;6.304;2022-12-18T07:46:34;28.17;;;13.50;;
15812;SDS011;8007;51.404;6.304;2022-12-18T07:48:37;26.07;;;12.33;;
15812;SDS011;8007;51.404;6.304;2022-12-18T07:50:39;26.80;;;11.90;;
15812;SDS011;8007;51.404;6.304;2022-12-18T07:52:41;28.30;;;11.57;;
15812;SDS011;8007;51.404;6.304;2022-12-18T07:54:43;22.23;;;12.17;;
15812;SDS011;8007;51.404;6.304;2022-12-18T07:56:47;22.27;;;12.47;;
15812;SDS011;8007;51.404;6.304;2022-12-18T07:58:49;28.93;;;12.97;;
15812;SDS011;8007;51.404;6.304;2022-12-18T08:00:51;25.63;;;12.80;;
15812;SDS011;8007;51.404;6.304;2022-12-18T08:02:54;27.07;;;13.13;;
15812;SDS011;8007;51.404;6.304;2022-12-18T08:04:56;25.33;;;12.67;;
15812;SDS011;8007;51.404;6.304;2022-12-18T08:06:59;24.70;;;12.67;;
15812;SDS011;8007;51.404;6.304;2022-12-18T08:09:02;26.50;;;11.83;;
15812;SDS011;8007;51.404;6.304;2022-12-18T08:11:04;24.13;;;12.17;;
15812;SDS011;8007;51.404;6.304;2022-12-18T08:13:08;62.60;;;24.90;;
15812;SDS011;8007;51.404;6.304;2022-12-18T08:15:10;32.73;;;17.87;;
15812;SDS011;8007;51.404;6.304;2022-12-18T08:17:12;21.60;;;12.70;;
15812;SDS011;8007;51.404;6.304;2022-12-18T08:19:14;26.60;;;13.67;;
15812;SDS011;8007;51.404;6.304;2022-12-18T08:21:17;24.17;;;12.77;;
15812;SDS011;8007;51.404;6.304;2022-12-18T08:23:21;22.97;;;12.23;;
15812;SDS011;8007;51.404;6.304;2022-12-18T08:25:23;23.57;;;12.90;;
15812;SDS011;8007;51.404;6.304;2022-12-18T08:27:25;22.53;;;12.63;;
15812;SDS011;8007;51.404;6.304;2022-12-18T08:29:29;24.80;;;11.83;;
15812;SDS011;8007;51.404;6.304;2022-12-18T08:31:31;26.37;;;13.87;;
15812;SDS011;8007;51.404;6.304;2022-12-18T08:33:34;23.60;;;12.37;;
15812;SDS011;8007;51.404;6.304;2022-12-18T08:35:36;30.50;;;16.13;;
15812;SDS011;8007;51.404;6.304;2022-12-18T08:37:39;28.93;;;14.67;;
15812;SDS011;8007;51.404;6.304;2022-12-18T08:39:41;26.37;;;13.73;;
15812;SDS011;8007;51.404;6.304;2022-12-18T08:41:43;24.30;;;13.37;;
15812;SDS011;8007;51.404;6.304;2022-12-18T08:44:06;19.00;;;11.47;;
15812;SDS011;8007;51.404;6.304;2022-12-18T08:46:30;22.77;;;11.83;;
15812;SDS011;8007;51.404;6.304;2022-12-18T08:48:34;25.30;;;14.00;;
15812;SDS011;8007;51.404;6.304;2022-12-18T08:50:36;25.50;;;12.67;;
15812;SDS011;8007;51.404;6.304;2022-12-18T08:52:38;24.00;;;13.03;;
15812;SDS011;8007;51.404;6.304;2022-12-18T08:54:40;21.83;;;12.63;;
15812;SDS011;8007;51.404;6.304;2022-12-18T08:56:43;22.80;;;11.60;;
15812;SDS011;8007;51.404;6.304;2022-12-18T08:58:45;21.53;;;11.60;;
15812;SDS011;8007;51.404;6.304;2022-12-18T09:00:47;24.07;;;13.60;;
15812;SDS011;8007;51.404;6.304;2022-12-18T09:02:50;22.50;;;12.03;;
15812;SDS011;8007;51.404;6.304;2022-12-18T09:04:53;21.43;;;11.17;;
15812;SDS011;8007;51.404;6.304;2022-12-18T09:06:55;24.90;;;11.70;;
15812;SDS011;8007;51.404;6.304;2022-12-18T09:08:57;19.63;;;10.80;;
15812;SDS011;8007;51.404;6.304;2022-12-18T09:10:59;23.93;;;12.07;;
15812;SDS011;8007;51.404;6.304;2022-12-18T09:13:01;26.77;;;13.23;;
15812;SDS011;8007;51.404;6.304;2022-12-18T09:15:04;25.07;;;12.57;;
15812;SDS011;8007;51.404;6.304;2022-12-18T09:17:06;20.07;;;11.67;;
15812;SDS011;8007;51.404;6.304;2022-12-18T09:19:10;20.93;;;11.20;;
15812;SDS011;8007;51.404;6.304;2022-12-18T09:21:13;20.60;;;11.17;;
15812;SDS011;8007;51.404;6.304;2022-12-18T09:23:16;25.33;;;11.53;;
15812;SDS011;8007;51.404;6.304;2022-12-18T09:25:18;23.10;;;11.60;;
15812;SDS011;8007;51.404;6.304;2022-12-18T09:27:20;23.27;;;12.30;;
15812;SDS011;8007;51.404;6.304;2022-12-18T09:29:22;24.43;;;12.53;;
15812;SDS011;8007;51.404;6.304;2022-12-18T09:31:25;22.70;;;11.50;;
15812;SDS011;8007;51.404;6.304;2022-12-18T09:33:27;24.30;;;12.10;;
15812;SDS011;8007;51.404;6.304;2022-12-18T09:35:31;21.77;;;10.80;;
15812;SDS011;8007;51.404;6.304;2022-12-18T09:37:33;27.60;;;12.13;;
15812;SDS011;8007;51.404;6.304;2022-12-18T09:39:35;26.67;;;11.80;;
15812;SDS011;8007;51.404;6.304;2022-12-18T09:41:39;19.70;;;9.80;;
15812;SDS011;8007;51.404;6.304;2022-12-18T09:43:43;20.80;;;11.10;;
15812;SDS011;8007;51.404;6.304;2022-12-18T09:45:49;20.00;;;10.87;;
15812;SDS011;8007;51.404;6.304;2022-12-18T09:47:53;20.67;;;10.93;;
15812;SDS011;8007;51.404;6.304;2022-12-18T09:49:58;18.67;;;10.53;;
15812;SDS011;8007;51.404;6.304;2022-12-18T09:52:03;21.47;;;11.50;;
15812;SDS011;8007;51.404;6.304;2022-12-18T09:54:07;22.17;;;11.63;;
15812;SDS011;8007;51.404;6.304;2022-12-18T09:56:15;21.27;;;12.03;;
15812;SDS011;8007;51.404;6.304;2022-12-18T09:58:19;23.43;;;12.53;;
15812;SDS011;8007;51.404;6.304;2022-12-18T10:00:23;20.93;;;11.47;;
15812;SDS011;8007;51.404;6.304;2022-12-18T10:02:26;24.47;;;11.97;;
15812;SDS011;8007;51.404;6.304;2022-12-18T10:04:28;25.60;;;10.67;;
15812;SDS011;8007;51.404;6.304;2022-12-18T10:06:35;21.77;;;12.03;;
15812;SDS011;8007;51.404;6.304;2022-12-18T10:08:42;23.87;;;11.53;;
15812;SDS011;8007;51.404;6.304;2022-12-18T10:10:46;19.20;;;11.47;;
15812;SDS011;8007;51.404;6.304;2022-12-18T10:12:52;21.53;;;11.20;;
15812;SDS011;8007;51.404;6.304;2022-12-18T10:14:58;25.30;;;11.63;;
15812;SDS011;8007;51.404;6.304;2022-12-18T10:17:11;20.57;;;10.03;;
15812;SDS011;8007;51.404;6.304;2022-12-18T10:19:33;23.20;;;12.00;;
15812;SDS011;8007;51.404;6.304;2022-12-18T10:21:41;23.13;;;11.57;;
15812;SDS011;8007;51.404;6.304;2022-12-18T10:23:50;17.83;;;9.93;;
15812;SDS011;8007;51.404;6.304;2022-12-18T10:25:59;20.10;;;10.80;;
15812;SDS011;8007;51.404;6.304;2022-12-18T10:28:07;20.83;;;11.70;;
15812;SDS011;8007;51.404;6.304;2022-12-18T10:30:12;19.47;;;11.20;;
15812;SDS011;8007;51.404;6.304;2022-12-18T10:32:15;23.07;;;11.43;;
15812;SDS011;8007;51.404;6.304;2022-12-18T10:34:19;21.87;;;11.27;;
15812;SDS011;8007;51.404;6.304;2022-12-18T10:36:22;21.60;;;11.10;;
15812;SDS011;8007;51.404;6.304;2022-12-18T10:38:25;22.67;;;11.23;;
15812;SDS011;8007;51.404;6.304;2022-12-18T10:40:29;19.97;;;11.47;;
15812;SDS011;8007;51.404;6.304;2022-12-18T10:42:31;18.27;;;10.30;;
15812;SDS011;8007;51.404;6.304;2022-12-18T10:44:33;22.30;;;11.03;;
15812;SDS011;8007;51.404;6.304;2022-12-18T10:46:36;21.17;;;11.37;;
15812;SDS011;8007;51.404;6.304;2022-12-18T10:48:39;21.23;;;11.20;;
15812;SDS011;8007;51.404;6.304;2022-12-18T10:50:42;18.43;;;10.23;;
15812;SDS011;8007;51.404;6.304;2022-12-18T10:52:53;23.43;;;11.33;;
15812;SDS011;8007;51.404;6.304;2022-12-18T10:54:56;22.90;;;10.90;;
15812;SDS011;8007;51.404;6.304;2022-12-18T10:57:15;17.73;;;10.73;;
15812;SDS011;8007;51.404;6.304;2022-12-18T10:59:17;19.87;;;10.37;;
15812;SDS011;8007;51.404;6.304;2022-12-18T11:01:20;20.03;;;11.00;;
15812;SDS011;8007;51.404;6.304;2022-12-18T11:03:29;25.20;;;13.30;;
15812;SDS011;8007;51.404;6.304;2022-12-18T11:05:33;27.83;;;14.07;;
15812;SDS011;8007;51.404;6.304;2022-12-18T11:07:47;22.33;;;12.03;;
15812;SDS011;8007;51.404;6.304;2022-12-18T11:09:59;20.03;;;11.37;;
15812;SDS011;8007;51.404;6.304;2022-12-18T11:12:13;22.97;;;11.60;;
15812;SDS011;8007;51.404;6.304;2022-12-18T11:14:18;20.97;;;11.20;;
15812;SDS011;8007;51.404;6.304;2022-12-18T11:16:22;22.63;;;11.50;;
15812;SDS011;8007;51.404;6.304;2022-12-18T11:18:26;21.00;;;11.50;;
15812;SDS011;8007;51.404;6.304;2022-12-18T11:20:30;21.47;;;12.30;;
15812;SDS011;8007;51.404;6.304;2022-12-18T11:22:33;26.87;;;12.00;;
15812;SDS011;8007;51.404;6.304;2022-12-18T11:24:36;22.23;;;14.00;;
15812;SDS011;8007;51.404;6.304;2022-12-18T11:26:38;21.53;;;12.90;;
15812;SDS011;8007;51.404;6.304;2022-12-18T11:28:43;21.43;;;11.83;;
15812;SDS011;8007;51.404;6.304;2022-12-18T11:30:47;23.90;;;11.80;;
15812;SDS011;8007;51.404;6.304;2022-12-18T11:32:50;22.63;;;12.30;;
15812;SDS011;8007;51.404;6.304;2022-12-18T11:34:53;22.47;;;11.27;;
15812;SDS011;8007;51.404;6.304;2022-12-18T11:36:59;20.53;;;10.70;;
15812;SDS011;8007;51.404;6.304;2022-12-18T11:39:05;22.13;;;12.00;;
15812;SDS011;8007;51.404;6.304;2022-12-18T11:41:11;22.83;;;11.30;;
15812;SDS011;8007;51.404;6.304;2022-12-18T11:43:17;20.77;;;11.03;;
15812;SDS011;8007;51.404;6.304;2022-12-18T11:45:26;19.57;;;11.40;;
15812;SDS011;8007;51.404;6.304;2022-12-18T11:47:34;20.67;;;11.13;;
15812;SDS011;8007;51.404;6.304;2022-12-18T11:49:39;26.37;;;11.27;;
15812;SDS011;8007;51.404;6.304;2022-12-18T11:51:47;20.17;;;10.87;;
15812;SDS011;8007;51.404;6.304;2022-12-18T11:53:52;22.47;;;12.43;;
15812;SDS011;8007;51.404;6.304;2022-12-18T11:55:56;23.80;;;11.13;;
15812;SDS011;8007;51.404;6.304;2022-12-18T11:58:03;20.47;;;11.30;;
15812;SDS011;8007;51.404;6.304;2022-12-18T12:00:11;22.00;;;11.27;;
15812;SDS011;8007;51.404;6.304;2022-12-18T12:02:19;20.93;;;11.73;;
15812;SDS011;8007;51.404;6.304;2022-12-18T12:06:46;20.23;;;10.53;;
15812;SDS011;8007;51.404;6.304;2022-12-18T12:08:57;21.17;;;10.90;;
15812;SDS011;8007;51.404;6.304;2022-12-18T12:11:03;23.80;;;11.77;;
15812;SDS011;8007;51.404;6.304;2022-12-18T12:13:13;19.73;;;10.60;;
15812;SDS011;8007;51.404;6.304;2022-12-18T12:15:20;23.03;;;11.20;;
15812;SDS011;8007;51.404;6.304;2022-12-18T12:17:27;21.70;;;10.93;;
15812;SDS011;8007;51.404;6.304;2022-12-18T12:19:35;20.20;;;11.07;;